Urb La Rosaleda Ii, Puerto Rico
Current Conditions -  °F | °C
As of 8:56 PM on Tuesday 27 Jan 2015 (Local Time) from TJSJ Reporting Station
Few Clouds Few Clouds  
Wind Chill: 79°   Ceiling: Unl
Heat Index: 82°   Visibility: 10mi
Dew Point: 72°   Wind: 3mph
Humidity: 79%   Direction: 170°S
Pressure: 30.02"   Gusts: NA
Location:  18.4519°N, 66.1817°W
Report Text: TJSJ 280056Z 17003KT 10SM FEW065 26/22 A3002 RMK AO2 SLP164 T02610222
Loading
Personal Weather Stations






























Interactive Weather Map New forecast layout! Learn more

10-Day Weather Forecast

Advertisements
Track Severe Weather on mobile